sensor_id;sensor_type;location;lat;lon;timestamp;pressure;altitude;pressure_sealevel;temperature;humidity
22440;BME280;11387;51.612;7.210;2023-02-22T00:00:58;100730.59;;;6.20;98.30
22440;BME280;11387;51.612;7.210;2023-02-22T00:03:35;100731.38;;;6.05;98.44
22440;BME280;11387;51.612;7.210;2023-02-22T00:06:05;100722.00;;;5.86;98.16
22440;BME280;11387;51.612;7.210;2023-02-22T00:08:35;100724.97;;;5.74;98.82
22440;BME280;11387;51.612;7.210;2023-02-22T00:11:05;100715.09;;;5.58;99.08
22440;BME280;11387;51.612;7.210;2023-02-22T00:13:35;100720.47;;;5.48;100.00
22440;BME280;11387;51.612;7.210;2023-02-22T00:16:05;100712.53;;;5.36;100.00
22440;BME280;11387;51.612;7.210;2023-02-22T00:18:35;100720.59;;;5.26;100.00
22440;BME280;11387;51.612;7.210;2023-02-22T00:21:05;100720.50;;;5.11;100.00
22440;BME280;11387;51.612;7.210;2023-02-22T00:23:39;100721.53;;;5.04;100.00
22440;BME280;11387;51.612;7.210;2023-02-22T00:26:09;100707.38;;;4.97;100.00
22440;BME280;11387;51.612;7.210;2023-02-22T00:28:39;100716.78;;;4.90;100.00
22440;BME280;11387;51.612;7.210;2023-02-22T00:31:08;100715.38;;;4.82;100.00
22440;BME280;11387;51.612;7.210;2023-02-22T00:33:39;100704.03;;;4.85;100.00
22440;BME280;11387;51.612;7.210;2023-02-22T00:36:09;100706.66;;;4.75;100.00
22440;BME280;11387;51.612;7.210;2023-02-22T00:38:39;100694.69;;;4.71;100.00
22440;BME280;11387;51.612;7.210;2023-02-22T00:41:08;100702.69;;;4.56;100.00
22440;BME280;11387;51.612;7.210;2023-02-22T00:43:37;100699.56;;;4.42;100.00
22440;BME280;11387;51.612;7.210;2023-02-22T00:46:06;100707.88;;;4.35;100.00
22440;BME280;11387;51.612;7.210;2023-02-22T00:48:34;100703.47;;;4.24;100.00
22440;BME280;11387;51.612;7.210;2023-02-22T00:51:05;100707.69;;;4.15;100.00
22440;BME280;11387;51.612;7.210;2023-02-22T00:53:35;100701.56;;;4.03;100.00
22440;BME280;11387;51.612;7.210;2023-02-22T00:56:05;100700.72;;;3.97;100.00
22440;BME280;11387;51.612;7.210;2023-02-22T00:58:33;100697.13;;;3.92;100.00
22440;BME280;11387;51.612;7.210;2023-02-22T01:01:02;100692.22;;;3.89;100.00
22440;BME280;11387;51.612;7.210;2023-02-22T01:03:31;100690.66;;;3.93;100.00
22440;BME280;11387;51.612;7.210;2023-02-22T01:06:01;100691.72;;;3.92;100.00
22440;BME280;11387;51.612;7.210;2023-02-22T01:08:31;100688.94;;;3.87;100.00
22440;BME280;11387;51.612;7.210;2023-02-22T01:10:59;100693.72;;;3.80;100.00
22440;BME280;11387;51.612;7.210;2023-02-22T01:13:28;100689.97;;;3.81;100.00
22440;BME280;11387;51.612;7.210;2023-02-22T01:15:56;100688.88;;;3.82;100.00
22440;BME280;11387;51.612;7.210;2023-02-22T01:18:26;100679.00;;;3.70;100.00
22440;BME280;11387;51.612;7.210;2023-02-22T01:20:55;100675.84;;;3.79;100.00
22440;BME280;11387;51.612;7.210;2023-02-22T01:23:23;100681.22;;;3.73;100.00
22440;BME280;11387;51.612;7.210;2023-02-22T01:25:53;100682.34;;;3.78;100.00
22440;BME280;11387;51.612;7.210;2023-02-22T01:28:21;100672.53;;;3.93;100.00
22440;BME280;11387;51.612;7.210;2023-02-22T01:30:50;100670.59;;;4.16;100.00
22440;BME280;11387;51.612;7.210;2023-02-22T01:33:19;100669.09;;;4.30;100.00
22440;BME280;11387;51.612;7.210;2023-02-22T01:35:47;100667.94;;;4.48;100.00
22440;BME280;11387;51.612;7.210;2023-02-22T01:38:17;100662.38;;;4.64;100.00
22440;BME280;11387;51.612;7.210;2023-02-22T01:40:47;100661.66;;;4.74;100.00
22440;BME280;11387;51.612;7.210;2023-02-22T01:43:19;100652.53;;;4.85;100.00
22440;BME280;11387;51.612;7.210;2023-02-22T01:45:53;100653.91;;;4.93;100.00
22440;BME280;11387;51.612;7.210;2023-02-22T01:48:38;100648.22;;;4.94;100.00
22440;BME280;11387;51.612;7.210;2023-02-22T01:51:13;100652.34;;;5.02;100.00
22440;BME280;11387;51.612;7.210;2023-02-22T01:53:46;100657.53;;;5.03;100.00
22440;BME280;11387;51.612;7.210;2023-02-22T01:56:19;100650.75;;;5.06;100.00
22440;BME280;11387;51.612;7.210;2023-02-22T01:58:51;100651.41;;;5.18;100.00
22440;BME280;11387;51.612;7.210;2023-02-22T02:01:23;100657.09;;;5.22;100.00
22440;BME280;11387;51.612;7.210;2023-02-22T02:03:56;100655.44;;;5.21;100.00
22440;BME280;11387;51.612;7.210;2023-02-22T02:06:27;100656.25;;;5.21;100.00
22440;BME280;11387;51.612;7.210;2023-02-22T02:09:01;100652.81;;;5.31;100.00
22440;BME280;11387;51.612;7.210;2023-02-22T02:11:32;100651.22;;;5.35;100.00
22440;BME280;11387;51.612;7.210;2023-02-22T02:14:02;100643.63;;;5.37;100.00
22440;BME280;11387;51.612;7.210;2023-02-22T02:16:35;100644.72;;;5.41;100.00
22440;BME280;11387;51.612;7.210;2023-02-22T02:19:10;100649.06;;;5.42;100.00
22440;BME280;11387;51.612;7.210;2023-02-22T02:22:01;100645.84;;;5.45;100.00
22440;BME280;11387;51.612;7.210;2023-02-22T02:27:44;100630.91;;;5.43;100.00
22440;BME280;11387;51.612;7.210;2023-02-22T02:30:38;100632.22;;;5.35;100.00
22440;BME280;11387;51.612;7.210;2023-02-22T02:33:15;100619.75;;;5.39;100.00
22440;BME280;11387;51.612;7.210;2023-02-22T02:35:50;100624.09;;;5.40;100.00
22440;BME280;11387;51.612;7.210;2023-02-22T02:38:30;100614.34;;;5.39;100.00
22440;BME280;11387;51.612;7.210;2023-02-22T02:41:05;100618.72;;;5.45;100.00
22440;BME280;11387;51.612;7.210;2023-02-22T02:43:38;100614.91;;;5.51;100.00
22440;BME280;11387;51.612;7.210;2023-02-22T02:46:14;100611.13;;;5.47;100.00
22440;BME280;11387;51.612;7.210;2023-02-22T02:48:50;100615.97;;;5.40;100.00
22440;BME280;11387;51.612;7.210;2023-02-22T02:51:21;100608.34;;;5.37;100.00
22440;BME280;11387;51.612;7.210;2023-02-22T02:53:51;100599.19;;;5.48;100.00
22440;BME280;11387;51.612;7.210;2023-02-22T02:56:21;100591.56;;;5.45;100.00
22440;BME280;11387;51.612;7.210;2023-02-22T02:58:51;100601.63;;;5.45;100.00
22440;BME280;11387;51.612;7.210;2023-02-22T03:01:42;100594.78;;;5.37;100.00
22440;BME280;11387;51.612;7.210;2023-02-22T03:04:32;100594.75;;;5.32;100.00
22440;BME280;11387;51.612;7.210;2023-02-22T03:07:24;100581.69;;;5.24;100.00
22440;BME280;11387;51.612;7.210;2023-02-22T03:10:07;100577.88;;;5.15;100.00
22440;BME280;11387;51.612;7.210;2023-02-22T03:12:44;100579.81;;;5.19;100.00
22440;BME280;11387;51.612;7.210;2023-02-22T03:15:24;100575.19;;;5.25;100.00
22440;BME280;11387;51.612;7.210;2023-02-22T03:18:02;100571.41;;;5.26;100.00
22440;BME280;11387;51.612;7.210;2023-02-22T03:20:42;100574.13;;;5.26;100.00
22440;BME280;11387;51.612;7.210;2023-02-22T03:23:19;100565.44;;;5.29;100.00
22440;BME280;11387;51.612;7.210;2023-02-22T03:25:54;100568.44;;;5.27;100.00
22440;BME280;11387;51.612;7.210;2023-02-22T03:28:27;100564.38;;;5.30;100.00
22440;BME280;11387;51.612;7.210;2023-02-22T03:30:59;100560.56;;;5.31;100.00
22440;BME280;11387;51.612;7.210;2023-02-22T03:33:32;100560.06;;;5.39;100.00
22440;BME280;11387;51.612;7.210;2023-02-22T03:36:10;100558.44;;;5.38;100.00
22440;BME280;11387;51.612;7.210;2023-02-22T03:38:41;100558.09;;;5.24;100.00
22440;BME280;11387;51.612;7.210;2023-02-22T03:41:12;100554.31;;;5.25;100.00
22440;BME280;11387;51.612;7.210;2023-02-22T03:43:47;100546.97;;;5.21;100.00
22440;BME280;11387;51.612;7.210;2023-02-22T03:46:17;100545.88;;;5.12;100.00
22440;BME280;11387;51.612;7.210;2023-02-22T03:48:50;100547.47;;;5.07;100.00
22440;BME280;11387;51.612;7.210;2023-02-22T03:51:23;100548.00;;;5.04;100.00
22440;BME280;11387;51.612;7.210;2023-02-22T03:53:52;100544.53;;;5.14;100.00
22440;BME280;11387;51.612;7.210;2023-02-22T03:56:24;100544.81;;;5.18;100.00
22440;BME280;11387;51.612;7.210;2023-02-22T03:59:03;100550.16;;;5.02;100.00
22440;BME280;11387;51.612;7.210;2023-02-22T04:01:32;100540.66;;;5.00;100.00
22440;BME280;11387;51.612;7.210;2023-02-22T04:04:01;100541.97;;;4.97;100.00
22440;BME280;11387;51.612;7.210;2023-02-22T04:06:31;100542.28;;;5.01;100.00
22440;BME280;11387;51.612;7.210;2023-02-22T04:08:59;100543.16;;;5.12;100.00
22440;BME280;11387;51.612;7.210;2023-02-22T04:11:27;100544.66;;;4.92;100.00
22440;BME280;11387;51.612;7.210;2023-02-22T04:13:56;100548.75;;;4.95;100.00
22440;BME280;11387;51.612;7.210;2023-02-22T04:16:25;100543.59;;;4.88;100.00
22440;BME280;11387;51.612;7.210;2023-02-22T04:18:54;100547.59;;;4.81;100.00
22440;BME280;11387;51.612;7.210;2023-02-22T04:21:22;100544.59;;;4.77;100.00
22440;BME280;11387;51.612;7.210;2023-02-22T04:23:53;100548.94;;;4.78;100.00
22440;BME280;11387;51.612;7.210;2023-02-22T04:26:21;100554.41;;;4.83;100.00
22440;BME280;11387;51.612;7.210;2023-02-22T04:28:49;100544.84;;;4.76;100.00
22440;BME280;11387;51.612;7.210;2023-02-22T04:31:18;100553.53;;;4.78;100.00
22440;BME280;11387;51.612;7.210;2023-02-22T04:33:46;100546.78;;;4.80;100.00
22440;BME280;11387;51.612;7.210;2023-02-22T04:36:15;100547.06;;;4.84;100.00
22440;BME280;11387;51.612;7.210;2023-02-22T04:38:44;100545.75;;;4.86;100.00
22440;BME280;11387;51.612;7.210;2023-02-22T04:41:16;100543.59;;;4.88;100.00
22440;BME280;11387;51.612;7.210;2023-02-22T04:43:46;100540.88;;;4.93;100.00
22440;BME280;11387;51.612;7.210;2023-02-22T04:46:15;100540.91;;;4.98;100.00
22440;BME280;11387;51.612;7.210;2023-02-22T04:48:44;100543.34;;;5.00;100.00
22440;BME280;11387;51.612;7.210;2023-02-22T04:51:12;100545.28;;;5.04;100.00
22440;BME280;11387;51.612;7.210;2023-02-22T04:53:41;100536.84;;;5.01;100.00
22440;BME280;11387;51.612;7.210;2023-02-22T04:56:10;100536.59;;;5.02;100.00
22440;BME280;11387;51.612;7.210;2023-02-22T04:58:40;100531.75;;;5.10;100.00
22440;BME280;11387;51.612;7.210;2023-02-22T05:01:09;100537.63;;;4.96;100.00
22440;BME280;11387;51.612;7.210;2023-02-22T05:03:37;100531.94;;;4.93;100.00
22440;BME280;11387;51.612;7.210;2023-02-22T05:06:06;100527.84;;;4.85;100.00
22440;BME280;11387;51.612;7.210;2023-02-22T05:08:35;100527.31;;;4.88;100.00
22440;BME280;11387;51.612;7.210;2023-02-22T05:11:03;100527.28;;;4.83;100.00
22440;BME280;11387;51.612;7.210;2023-02-22T05:13:32;100522.94;;;4.82;100.00
22440;BME280;11387;51.612;7.210;2023-02-22T05:16:02;100522.97;;;4.87;100.00
22440;BME280;11387;51.612;7.210;2023-02-22T05:18:30;100514.84;;;4.87;100.00
22440;BME280;11387;51.612;7.210;2023-02-22T05:20:59;100517.00;;;4.90;100.00
22440;BME280;11387;51.612;7.210;2023-02-22T05:23:27;100522.41;;;4.90;100.00
22440;BME280;11387;51.612;7.210;2023-02-22T05:25:56;100517.28;;;4.89;100.00
22440;BME280;11387;51.612;7.210;2023-02-22T05:28:24;100510.50;;;4.91;100.00
22440;BME280;11387;51.612;7.210;2023-02-22T05:30:53;100522.72;;;4.89;100.00
22440;BME280;11387;51.612;7.210;2023-02-22T05:33:23;100510.50;;;4.86;100.00
22440;BME280;11387;51.612;7.210;2023-02-22T05:35:51;100513.22;;;4.86;100.00
22440;BME280;11387;51.612;7.210;2023-02-22T05:38:22;100509.13;;;4.84;100.00
22440;BME280;11387;51.612;7.210;2023-02-22T05:40:50;100508.88;;;4.85;100.00
22440;BME280;11387;51.612;7.210;2023-02-22T05:43:19;100499.09;;;4.84;100.00
22440;BME280;11387;51.612;7.210;2023-02-22T05:45:47;100498.59;;;4.87;100.00
22440;BME280;11387;51.612;7.210;2023-02-22T05:48:16;100502.38;;;4.86;100.00
22440;BME280;11387;51.612;7.210;2023-02-22T05:50:46;100495.56;;;4.79;100.00
22440;BME280;11387;51.612;7.210;2023-02-22T05:53:16;100503.13;;;4.77;100.00
22440;BME280;11387;51.612;7.210;2023-02-22T05:55:44;100495.78;;;4.72;100.00
22440;BME280;11387;51.612;7.210;2023-02-22T05:58:12;100502.00;;;4.72;100.00
22440;BME280;11387;51.612;7.210;2023-02-22T06:00:41;100499.59;;;4.76;100.00
22440;BME280;11387;51.612;7.210;2023-02-22T06:03:10;100502.00;;;4.72;100.00
22440;BME280;11387;51.612;7.210;2023-02-22T06:05:39;100493.63;;;4.74;100.00
22440;BME280;11387;51.612;7.210;2023-02-22T06:08:09;100486.03;;;4.71;100.00
22440;BME280;11387;51.612;7.210;2023-02-22T06:10:38;100486.88;;;4.77;100.00
22440;BME280;11387;51.612;7.210;2023-02-22T06:13:06;100495.84;;;4.82;100.00
22440;BME280;11387;51.612;7.210;2023-02-22T06:15:35;100485.56;;;4.89;100.00
22440;BME280;11387;51.612;7.210;2023-02-22T06:18:08;100485.56;;;4.84;100.00
22440;BME280;11387;51.612;7.210;2023-02-22T06:20:37;100484.41;;;4.75;100.00
22440;BME280;11387;51.612;7.210;2023-02-22T06:23:05;100496.34;;;4.74;100.00
22440;BME280;11387;51.612;7.210;2023-02-22T06:25:35;100493.63;;;4.74;100.00
22440;BME280;11387;51.612;7.210;2023-02-22T06:28:03;100491.19;;;4.72;100.00
22440;BME280;11387;51.612;7.210;2023-02-22T06:30:32;100498.53;;;4.77;100.00
22440;BME280;11387;51.612;7.210;2023-02-22T06:33:01;100493.59;;;4.69;100.00
22440;BME280;11387;51.612;7.210;2023-02-22T06:35:29;100494.13;;;4.66;100.00
22440;BME280;11387;51.612;7.210;2023-02-22T06:37:57;100493.03;;;4.67;100.00
22440;BME280;11387;51.612;7.210;2023-02-22T06:40:26;100500.13;;;4.73;100.00
22440;BME280;11387;51.612;7.210;2023-02-22T06:42:57;100496.59;;;4.72;100.00
22440;BME280;11387;51.612;7.210;2023-02-22T06:45:26;100499.84;;;4.74;100.00
22440;BME280;11387;51.612;7.210;2023-02-22T06:47:54;100499.28;;;4.67;100.00
22440;BME280;11387;51.612;7.210;2023-02-22T06:50:25;100493.53;;;4.54;100.00
22440;BME280;11387;51.612;7.210;2023-02-22T06:52:55;100487.53;;;4.52;100.00
22440;BME280;11387;51.612;7.210;2023-02-22T06:55:25;100493.56;;;4.64;100.00
22440;BME280;11387;51.612;7.210;2023-02-22T06:57:55;100491.66;;;4.64;100.00
22440;BME280;11387;51.612;7.210;2023-02-22T07:00:25;100496.63;;;4.78;100.00
22440;BME280;11387;51.612;7.210;2023-02-22T07:02:55;100492.59;;;4.90;100.00
22440;BME280;11387;51.612;7.210;2023-02-22T07:05:25;100498.81;;;4.81;100.00
22440;BME280;11387;51.612;7.210;2023-02-22T07:08:00;100504.44;;;4.69;100.00
22440;BME280;11387;51.612;7.210;2023-02-22T07:10:30;100504.91;;;4.56;100.00
22440;BME280;11387;51.612;7.210;2023-02-22T07:13:00;100502.78;;;4.68;100.00
22440;BME280;11387;51.612;7.210;2023-02-22T07:15:33;100501.16;;;4.67;100.00
22440;BME280;11387;51.612;7.210;2023-02-22T07:18:03;100507.09;;;4.64;100.00
22440;BME280;11387;51.612;7.210;2023-02-22T07:20:34;100490.28;;;4.62;100.00
22440;BME280;11387;51.612;7.210;2023-02-22T07:23:04;100494.63;;;4.63;100.00
22440;BME280;11387;51.612;7.210;2023-02-22T07:25:35;100483.06;;;4.78;100.00
22440;BME280;11387;51.612;7.210;2023-02-22T07:28:05;100494.44;;;4.74;100.00
22440;BME280;11387;51.612;7.210;2023-02-22T07:30:38;100489.09;;;4.85;100.00
22440;BME280;11387;51.612;7.210;2023-02-22T07:33:10;100486.97;;;5.02;100.00
22440;BME280;11387;51.612;7.210;2023-02-22T07:36:00;100484.00;;;5.03;100.00
22440;BME280;11387;51.612;7.210;2023-02-22T07:38:46;100483.50;;;5.12;100.00
22440;BME280;11387;51.612;7.210;2023-02-22T07:41:32;100490.56;;;5.13;100.00
22440;BME280;11387;51.612;7.210;2023-02-22T07:44:01;100488.91;;;5.12;100.00
22440;BME280;11387;51.612;7.210;2023-02-22T07:46:34;100495.44;;;5.16;100.00
22440;BME280;11387;51.612;7.210;2023-02-22T07:49:02;100494.59;;;5.10;100.00
22440;BME280;11387;51.612;7.210;2023-02-22T07:51:37;100485.66;;;5.10;100.00
22440;BME280;11387;51.612;7.210;2023-02-22T07:54:08;100484.59;;;5.16;100.00
22440;BME280;11387;51.612;7.210;2023-02-22T07:56:44;100481.63;;;5.17;100.00
22440;BME280;11387;51.612;7.210;2023-02-22T07:59:20;100479.50;;;5.39;100.00
22440;BME280;11387;51.612;7.210;2023-02-22T08:02:27;100479.00;;;5.58;100.00
22440;BME280;11387;51.612;7.210;2023-02-22T08:05:13;100483.59;;;5.42;100.00
22440;BME280;11387;51.612;7.210;2023-02-22T08:07:51;100483.06;;;5.65;100.00
22440;BME280;11387;51.612;7.210;2023-02-22T08:10:29;100474.66;;;5.87;100.00
22440;BME280;11387;51.612;7.210;2023-02-22T08:13:05;100468.97;;;5.84;100.00
22440;BME280;11387;51.612;7.210;2023-02-22T08:15:37;100472.50;;;5.74;100.00
22440;BME280;11387;51.612;7.210;2023-02-22T08:18:12;100468.97;;;5.73;100.00
22440;BME280;11387;51.612;7.210;2023-02-22T08:20:43;100468.44;;;5.87;100.00
22440;BME280;11387;51.612;7.210;2023-02-22T08:23:12;100467.13;;;5.99;100.00
22440;BME280;11387;51.612;7.210;2023-02-22T08:25:41;100464.66;;;5.78;100.00
22440;BME280;11387;51.612;7.210;2023-02-22T08:28:15;100465.69;;;5.61;100.00
22440;BME280;11387;51.612;7.210;2023-02-22T08:30:51;100458.63;;;5.60;100.00
22440;BME280;11387;51.612;7.210;2023-02-22T08:33:22;100455.38;;;5.58;99.26
22440;BME280;11387;51.612;7.210;2023-02-22T08:35:57;100453.50;;;5.74;99.99
22440;BME280;11387;51.612;7.210;2023-02-22T08:38:28;100460.31;;;5.77;98.67
22440;BME280;11387;51.612;7.210;2023-02-22T08:41:04;100460.84;;;5.79;99.04
22440;BME280;11387;51.612;7.210;2023-02-22T08:43:41;100458.41;;;5.77;98.70
22440;BME280;11387;51.612;7.210;2023-02-22T08:46:15;100454.31;;;5.74;98.20
22440;BME280;11387;51.612;7.210;2023-02-22T08:48:50;100454.34;;;6.05;97.54
22440;BME280;11387;51.612;7.210;2023-02-22T08:51:19;100457.06;;;6.10;96.81
22440;BME280;11387;51.612;7.210;2023-02-22T08:53:57;100448.72;;;6.86;94.48
22440;BME280;11387;51.612;7.210;2023-02-22T08:56:25;100456.66;;;7.32;91.80
22440;BME280;11387;51.612;7.210;2023-02-22T08:58:57;100448.69;;;7.40;90.17
22440;BME280;11387;51.612;7.210;2023-02-22T09:01:26;100445.06;;;7.60;88.49
22440;BME280;11387;51.612;7.210;2023-02-22T09:04:01;100444.06;;;7.41;88.50
22440;BME280;11387;51.612;7.210;2023-02-22T09:06:29;100446.16;;;7.59;88.52
22440;BME280;11387;51.612;7.210;2023-02-22T09:08:58;100438.81;;;7.94;88.11
22440;BME280;11387;51.612;7.210;2023-02-22T09:11:27;100441.00;;;8.21;86.85
22440;BME280;11387;51.612;7.210;2023-02-22T09:13:55;100447.13;;;7.73;86.34
22440;BME280;11387;51.612;7.210;2023-02-22T09:16:24;100444.44;;;7.68;85.89
22440;BME280;11387;51.612;7.210;2023-02-22T09:18:52;100433.19;;;8.09;85.53
22440;BME280;11387;51.612;7.210;2023-02-22T09:21:33;100425.91;;;8.28;85.05
22440;BME280;11387;51.612;7.210;2023-02-22T09:24:05;100425.94;;;9.00;82.62
22440;BME280;11387;51.612;7.210;2023-02-22T09:26:35;100419.69;;;9.56;79.26
22440;BME280;11387;51.612;7.210;2023-02-22T09:29:06;100417.41;;;9.63;77.86
22440;BME280;11387;51.612;7.210;2023-02-22T09:31:36;100421.97;;;9.67;77.10
22440;BME280;11387;51.612;7.210;2023-02-22T09:34:06;100423.53;;;9.73;78.01
22440;BME280;11387;51.612;7.210;2023-02-22T09:36:42;100413.56;;;10.42;77.19
22440;BME280;11387;51.612;7.210;2023-02-22T09:39:12;100421.28;;;10.82;71.78
22440;BME280;11387;51.612;7.210;2023-02-22T09:41:47;100411.75;;;11.78;70.45
22440;BME280;11387;51.612;7.210;2023-02-22T09:44:21;100414.06;;;11.49;69.05
22440;BME280;11387;51.612;7.210;2023-02-22T09:46:56;100418.84;;;11.79;69.71
22440;BME280;11387;51.612;7.210;2023-02-22T09:49:29;100407.50;;;13.13;65.65
22440;BME280;11387;51.612;7.210;2023-02-22T09:52:03;100404.28;;;14.53;61.65
22440;BME280;11387;51.612;7.210;2023-02-22T09:54:37;100404.88;;;14.97;57.52
22440;BME280;11387;51.612;7.210;2023-02-22T09:57:10;100402.69;;;16.06;54.77
22440;BME280;11387;51.612;7.210;2023-02-22T09:59:46;100396.47;;;17.03;52.71
22440;BME280;11387;51.612;7.210;2023-02-22T10:02:24;100393.81;;;17.59;50.04
22440;BME280;11387;51.612;7.210;2023-02-22T10:04:59;100388.22;;;17.83;49.25
22440;BME280;11387;51.612;7.210;2023-02-22T10:07:38;100386.97;;;17.41;49.33
22440;BME280;11387;51.612;7.210;2023-02-22T10:10:14;100390.28;;;17.06;49.81
22440;BME280;11387;51.612;7.210;2023-02-22T10:12:50;100384.50;;;17.11;50.67
22440;BME280;11387;51.612;7.210;2023-02-22T10:15:41;100386.31;;;17.72;49.49
22440;BME280;11387;51.612;7.210;2023-02-22T10:18:31;100387.91;;;18.16;48.65
22440;BME280;11387;51.612;7.210;2023-02-22T10:21:06;100391.28;;;19.39;46.70
22440;BME280;11387;51.612;7.210;2023-02-22T10:23:46;100388.91;;;19.57;44.81
22440;BME280;11387;51.612;7.210;2023-02-22T10:26:23;100386.41;;;20.10;44.88
22440;BME280;11387;51.612;7.210;2023-02-22T10:28:58;100386.72;;;19.86;43.94
22440;BME280;11387;51.612;7.210;2023-02-22T10:31:31;100381.34;;;18.68;46.16
22440;BME280;11387;51.612;7.210;2023-02-22T10:34:03;100388.47;;;18.54;46.78
22440;BME280;11387;51.612;7.210;2023-02-22T10:36:32;100387.28;;;19.37;45.12
22440;BME280;11387;51.612;7.210;2023-02-22T10:39:15;100375.59;;;19.47;44.02
22440;BME280;11387;51.612;7.210;2023-02-22T10:41:50;100381.56;;;19.30;44.71
22440;BME280;11387;51.612;7.210;2023-02-22T10:44:20;100374.38;;;19.09;44.91
22440;BME280;11387;51.612;7.210;2023-02-22T10:46:48;100368.84;;;19.83;43.39
22440;BME280;11387;51.612;7.210;2023-02-22T10:49:20;100373.41;;;20.60;41.99
22440;BME280;11387;51.612;7.210;2023-02-22T10:51:58;100359.81;;;19.12;43.26
22440;BME280;11387;51.612;7.210;2023-02-22T10:54:31;100351.91;;;18.16;45.39
22440;BME280;11387;51.612;7.210;2023-02-22T10:57:02;100352.81;;;17.49;48.09
22440;BME280;11387;51.612;7.210;2023-02-22T10:59:34;100353.56;;;16.69;49.94
22440;BME280;11387;51.612;7.210;2023-02-22T11:02:08;100356.91;;;16.75;51.10
22440;BME280;11387;51.612;7.210;2023-02-22T11:04:47;100343.63;;;16.93;51.24
22440;BME280;11387;51.612;7.210;2023-02-22T11:07:22;100344.91;;;17.35;49.20
22440;BME280;11387;51.612;7.210;2023-02-22T11:09:54;100338.66;;;17.10;50.65
22440;BME280;11387;51.612;7.210;2023-02-22T11:12:28;100335.72;;;17.87;48.83
22440;BME280;11387;51.612;7.210;2023-02-22T11:15:25;100332.47;;;17.41;49.17
22440;BME280;11387;51.612;7.210;2023-02-22T11:17:55;100342.88;;;17.60;48.58
22440;BME280;11387;51.612;7.210;2023-02-22T11:20:29;100326.72;;;18.06;47.75
22440;BME280;11387;51.612;7.210;2023-02-22T11:23:02;100321.63;;;18.08;47.74
22440;BME280;11387;51.612;7.210;2023-02-22T11:25:35;100320.53;;;18.91;46.39
22440;BME280;11387;51.612;7.210;2023-02-22T11:28:08;100328.44;;;19.66;44.13
22440;BME280;11387;51.612;7.210;2023-02-22T11:30:39;100321.19;;;20.49;43.38
22440;BME280;11387;51.612;7.210;2023-02-22T11:33:17;100319.72;;;21.08;41.40
22440;BME280;11387;51.612;7.210;2023-02-22T11:35:51;100315.75;;;19.88;42.91
22440;BME280;11387;51.612;7.210;2023-02-22T11:38:21;100310.31;;;19.34;44.57
22440;BME280;11387;51.612;7.210;2023-02-22T11:41:12;100304.28;;;19.47;45.46
22440;BME280;11387;51.612;7.210;2023-02-22T11:43:46;100304.84;;;21.57;41.61
22440;BME280;11387;51.612;7.210;2023-02-22T11:46:18;100291.38;;;22.47;39.78
22440;BME280;11387;51.612;7.210;2023-02-22T11:48:55;100291.97;;;22.23;39.72
22440;BME280;11387;51.612;7.210;2023-02-22T11:51:43;100289.88;;;23.33;37.28
22440;BME280;11387;51.612;7.210;2023-02-22T11:54:27;100295.38;;;23.12;37.87
22440;BME280;11387;51.612;7.210;2023-02-22T11:57:12;100285.69;;;22.84;37.77
22440;BME280;11387;51.612;7.210;2023-02-22T11:59:52;100274.72;;;23.34;37.87
22440;BME280;11387;51.612;7.210;2023-02-22T12:02:43;100283.41;;;23.11;38.14
22440;BME280;11387;51.612;7.210;2023-02-22T12:05:39;100271.28;;;22.79;38.15
22440;BME280;11387;51.612;7.210;2023-02-22T12:08:19;100269.34;;;21.88;38.84
22440;BME280;11387;51.612;7.210;2023-02-22T12:10:59;100270.75;;;22.59;39.67
22440;BME280;11387;51.612;7.210;2023-02-22T12:13:45;100270.78;;;23.42;37.06
22440;BME280;11387;51.612;7.210;2023-02-22T12:16:25;100277.63;;;24.94;35.62
22440;BME280;11387;51.612;7.210;2023-02-22T12:19:18;100269.31;;;25.71;33.99
22440;BME280;11387;51.612;7.210;2023-02-22T12:21:56;100264.34;;;25.20;33.13
22440;BME280;11387;51.612;7.210;2023-02-22T12:24:33;100262.78;;;25.08;33.11
22440;BME280;11387;51.612;7.210;2023-02-22T12:27:07;100259.75;;;24.35;35.05
22440;BME280;11387;51.612;7.210;2023-02-22T12:29:42;100258.25;;;23.04;36.78
22440;BME280;11387;51.612;7.210;2023-02-22T12:32:15;100258.72;;;23.17;36.48
22440;BME280;11387;51.612;7.210;2023-02-22T12:34:47;100246.06;;;23.48;35.48
22440;BME280;11387;51.612;7.210;2023-02-22T12:37:22;100247.34;;;23.90;35.06
22440;BME280;11387;51.612;7.210;2023-02-22T12:39:58;100244.94;;;24.66;33.93
22440;BME280;11387;51.612;7.210;2023-02-22T12:42:46;100242.91;;;23.57;33.65
22440;BME280;11387;51.612;7.210;2023-02-22T12:45:25;100239.78;;;23.79;33.91
22440;BME280;11387;51.612;7.210;2023-02-22T12:47:59;100238.59;;;24.41;33.95
22440;BME280;11387;51.612;7.210;2023-02-22T12:50:30;100230.56;;;24.54;33.33
22440;BME280;11387;51.612;7.210;2023-02-22T12:53:07;100232.16;;;24.47;33.05
22440;BME280;11387;51.612;7.210;2023-02-22T12:55:42;100230.13;;;24.73;31.71
22440;BME280;11387;51.612;7.210;2023-02-22T12:58:20;100227.66;;;24.85;31.35
22440;BME280;11387;51.612;7.210;2023-02-22T13:00:57;100230.59;;;24.29;32.26
22440;BME280;11387;51.612;7.210;2023-02-22T13:03:32;100218.56;;;24.46;32.62
22440;BME280;11387;51.612;7.210;2023-02-22T13:06:13;100226.97;;;25.51;30.97
22440;BME280;11387;51.612;7.210;2023-02-22T13:08:58;100234.72;;;25.33;31.00
22440;BME280;11387;51.612;7.210;2023-02-22T13:11:34;100227.97;;;26.34;29.61
22440;BME280;11387;51.612;7.210;2023-02-22T13:14:20;100226.63;;;26.87;27.76
22440;BME280;11387;51.612;7.210;2023-02-22T13:16:59;100223.34;;;25.65;27.99
22440;BME280;11387;51.612;7.210;2023-02-22T13:19:38;100221.56;;;25.23;27.44
22440;BME280;11387;51.612;7.210;2023-02-22T13:22:14;100214.16;;;24.59;27.71
22440;BME280;11387;51.612;7.210;2023-02-22T13:24:54;100216.56;;;24.61;28.01